Decoded Metar for KNFL (FALLON in NV, USA) (IATA:NFL) | Meteo·Mobile Aviation Weather
aviador You're here:

KNFL Decoded Metar

FALLON in NV, USA
Report Time2019-04-23 07:56:00
UTC Time2019-04-23 08:43:04
Flight Rules vfr VFR
WindCalm
Visibility9999 m
Phenomena:N/A
Clouds:N/A
Expected CloudBase > 3,600 ft AGL from Temp-Dew spread
CeilingNone
Temp08°C (ISA +1)
Dew Point-1°C (53% RH)
AAT5.9°C
QNH1023 hPa
Density Alt3,780 ft
Elevation3,934 ft
Report Wrong Elevation
Raw Report
KNFL 230756Z AUTO 00000KT 10SM CLR 08/M01 A3021 RMK AO2 SLP194
T00781006 402170006=

Extra information for KNFL:More info

Metar Taf Metar & Taf Last 4 Metars F.Rules Stats Wind Profile Meteogram Temp Stats Airport Information Weather charts Add Link Nearby VenuesMetar ALERT Operation Metar Decoded Social comments

AIRNAV info for KNFL